Time;durP1;ratioP1;P1;durP2;ratioP2;P2;SDS_P1;SDS_P2;PMS_P1;PMS_P2;Temp;Humidity;BMP_temperature;BMP_pressure;BME280_temperature;BME280_humidity;BME280_pressure;Samples;Min_cycle;Max_cycle;Signal;HPM_P1;HPM_P2
2023/11/10 00:00:15;;;;;;;4.53;1.47;;;;;;;8.59;100.00;99556.47;6069430;28;21079;-69
2023/11/10 00:03:36;;;;;;;3.57;1.83;;;;;;;8.58;100.00;99551.22;6074690;28;20226;-70
2023/11/10 00:06:58;;;;;;;3.73;2.37;;;;;;;8.50;100.00;99556.53;6071691;28;20323;-69
2023/11/10 00:10:21;;;;;;;3.13;1.57;;;;;;;8.46;100.00;99541.75;6076949;28;20656;-69
2023/11/10 00:13:42;;;;;;;4.43;1.73;;;;;;;8.44;100.00;99533.00;6069497;28;20240;-70
2023/11/10 00:17:03;;;;;;;7.80;2.23;;;;;;;8.26;100.00;99537.56;6075006;28;20311;-69
2023/11/10 00:20:25;;;;;;;2.90;2.60;;;;;;;8.22;100.00;99528.91;6068205;28;20233;-69
2023/11/10 00:23:48;;;;;;;3.33;2.27;;;;;;;8.24;100.00;99534.97;6077467;28;20331;-70
2023/11/10 00:27:09;;;;;;;2.87;1.67;;;;;;;8.19;100.00;99531.06;6076221;28;20236;-70
2023/11/10 00:30:30;;;;;;;2.20;2.00;;;;;;;8.29;100.00;99530.03;6068073;28;20237;-70
2023/11/10 00:33:51;;;;;;;2.87;1.40;;;;;;;8.24;100.00;99520.72;6063982;28;20618;-70
2023/11/10 00:37:13;;;;;;;4.43;2.30;;;;;;;8.17;100.00;99527.69;6078199;28;20237;-70
2023/11/10 00:40:35;;;;;;;1.83;1.73;;;;;;;8.13;100.00;99531.69;6070063;28;20225;-69
2023/11/10 00:43:56;;;;;;;3.30;2.27;;;;;;;8.09;100.00;99540.03;6073560;28;20245;-68
2023/11/10 00:47:17;;;;;;;2.77;2.47;;;;;;;8.09;100.00;99542.72;6074327;28;20249;-67
2023/11/10 00:50:38;;;;;;;1.93;1.50;;;;;;;8.05;100.00;99545.88;6075788;28;20241;-70
2023/11/10 00:53:59;;;;;;;2.67;1.67;;;;;;;8.06;100.00;99543.03;6069993;28;20245;-70
2023/11/10 00:57:22;;;;;;;1.70;1.13;;;;;;;7.94;100.00;99559.53;6070293;28;20237;-70
2023/11/10 01:00:43;;;;;;;2.33;1.53;;;;;;;7.88;100.00;99566.34;6076296;28;20224;-69
2023/11/10 01:04:05;;;;;;;1.20;1.10;;;;;;;7.82;100.00;99558.88;6081422;28;20264;-69
2023/11/10 01:07:25;;;;;;;1.13;1.00;;;;;;;7.81;100.00;99557.19;6070629;29;20233;-69
2023/11/10 01:10:47;;;;;;;0.90;0.90;;;;;;;7.74;100.00;99580.25;6077374;28;20237;-69
2023/11/10 01:14:10;;;;;;;2.13;1.37;;;;;;;7.69;100.00;99579.03;6074375;28;20233;-70
2023/11/10 01:17:31;;;;;;;1.00;0.97;;;;;;;7.63;100.00;99591.19;6079653;28;20233;-69
2023/11/10 01:20:53;;;;;;;2.03;0.83;;;;;;;7.67;100.00;99592.59;6077950;28;20245;-69
2023/11/10 01:24:14;;;;;;;2.43;0.60;;;;;;;7.63;100.00;99584.97;6075805;28;20244;-68
2023/11/10 01:27:35;;;;;;;0.43;0.40;;;;;;;7.59;100.00;99578.22;6073738;28;20549;-69
2023/11/10 01:30:57;;;;;;;0.60;0.57;;;;;;;7.53;100.00;99585.00;6077904;28;20240;-69
2023/11/10 01:34:19;;;;;;;0.97;0.30;;;;;;;7.51;100.00;99591.53;6075331;28;20229;-70
2023/11/10 01:37:41;;;;;;;0.47;0.47;;;;;;;7.48;100.00;99581.94;6072150;28;20321;-70
2023/11/10 01:41:03;;;;;;;1.43;0.40;;;;;;;7.62;100.00;99588.66;6074544;28;20264;-69
2023/11/10 01:44:24;;;;;;;1.37;0.93;;;;;;;7.55;100.00;99579.53;6060789;29;21202;-68
2023/11/10 01:47:47;;;;;;;1.20;1.10;;;;;;;7.58;100.00;99582.75;6077361;28;20593;-69
2023/11/10 01:51:08;;;;;;;1.00;1.00;;;;;;;7.51;100.00;99576.28;6080308;28;20240;-69
2023/11/10 01:54:34;;;;;;;6.27;0.60;;;;;;;7.62;100.00;99578.78;6079728;28;20540;-69
2023/11/10 01:57:55;;;;;;;2.10;0.80;;;;;;;7.60;100.00;99574.53;6075850;28;20386;-69
2023/11/10 02:01:19;;;;;;;1.40;1.30;;;;;;;7.58;100.00;99576.53;6080758;28;20324;-70
2023/11/10 02:04:42;;;;;;;0.67;0.67;;;;;;;7.62;100.00;99570.72;6072657;28;20232;-68
2023/11/10 02:08:04;;;;;;;1.67;0.70;;;;;;;7.60;100.00;99567.34;6067285;28;20241;-69
2023/11/10 02:11:29;;;;;;;1.37;1.13;;;;;;;7.61;100.00;99555.66;6072576;28;20237;-69
2023/11/10 02:14:50;;;;;;;0.60;0.60;;;;;;;7.61;100.00;99555.66;6072972;28;20240;-69
2023/11/10 02:18:10;;;;;;;1.07;1.00;;;;;;;7.64;100.00;99560.69;6073461;28;20237;-69
2023/11/10 02:21:33;;;;;;;3.60;1.53;;;;;;;7.77;100.00;99550.44;6070465;28;20241;-69
2023/11/10 02:24:56;;;;;;;1.77;1.30;;;;;;;7.79;100.00;99553.81;6075452;28;20237;-68
2023/11/10 02:28:19;;;;;;;1.53;1.10;;;;;;;7.79;100.00;99551.16;6072015;29;20237;-70
2023/11/10 02:31:40;;;;;;;1.10;1.00;;;;;;;7.84;100.00;99559.56;6073124;28;20567;-69
2023/11/10 02:35:01;;;;;;;1.20;1.10;;;;;;;7.83;100.00;99543.63;6074426;28;20232;-70
2023/11/10 02:38:22;;;;;;;1.33;0.93;;;;;;;7.79;100.00;99553.81;6074398;28;20597;-68
2023/11/10 02:41:45;;;;;;;0.87;0.87;;;;;;;7.81;100.00;99549.16;6077722;28;20232;-68
2023/11/10 02:45:09;;;;;;;4.07;0.90;;;;;;;7.80;100.00;99558.19;6075772;28;20229;-69
2023/11/10 02:48:31;;;;;;;1.90;1.10;;;;;;;7.79;100.00;99553.81;6074187;28;20229;-69
2023/11/10 02:51:52;;;;;;;2.73;1.83;;;;;;;7.88;100.00;99568.19;6062011;28;20854;-69
2023/11/10 02:55:14;;;;;;;1.00;1.00;;;;;;;7.90;100.00;99564.34;6071621;28;20233;-69
2023/11/10 02:58:38;;;;;;;1.40;1.20;;;;;;;7.86;100.00;99559.44;6071249;28;20233;-69
2023/11/10 03:02:01;;;;;;;3.10;1.57;;;;;;;7.85;100.00;99552.38;6075624;28;20914;-69
2023/11/10 03:05:21;;;;;;;1.33;1.23;;;;;;;7.90;100.00;99553.63;6076591;29;20245;-69
2023/11/10 03:08:45;;;;;;;1.40;1.30;;;;;;;7.92;100.00;99551.63;6064202;28;20240;-68
2023/11/10 03:12:07;;;;;;;2.80;1.70;;;;;;;7.92;100.00;99550.78;6069316;28;20650;-69
2023/11/10 03:15:30;;;;;;;1.40;1.30;;;;;;;7.94;100.00;99549.63;6075158;28;20228;-69
2023/11/10 03:18:53;;;;;;;5.27;1.87;;;;;;;7.93;100.00;99552.44;6070869;28;20245;-69
2023/11/10 03:22:15;;;;;;;2.07;1.83;;;;;;;7.98;100.00;99542.13;6086869;28;20221;-69
2023/11/10 03:25:38;;;;;;;2.07;1.43;;;;;;;7.97;100.00;99548.47;6066994;28;20236;-68
2023/11/10 03:29:01;;;;;;;1.80;1.70;;;;;;;7.90;100.00;99548.25;6074984;28;20563;-71
2023/11/10 03:32:23;;;;;;;1.73;1.63;;;;;;;7.92;100.00;99545.41;6070609;28;20268;-68
2023/11/10 03:35:45;;;;;;;2.47;2.27;;;;;;;7.94;100.00;99548.78;6071130;28;20241;-69
2023/11/10 03:39:06;;;;;;;3.87;2.37;;;;;;;7.94;100.00;99544.28;6066174;28;20319;-69
2023/11/10 03:42:28;;;;;;;1.87;1.77;;;;;;;7.93;100.00;99549.75;6063415;28;20241;-69
2023/11/10 03:45:49;;;;;;;2.33;2.13;;;;;;;7.93;100.00;99550.63;6061752;28;20229;-69
2023/11/10 03:49:10;;;;;;;2.77;2.03;;;;;;;7.95;100.00;99539.72;6074653;28;20327;-69
2023/11/10 03:52:33;;;;;;;1.80;1.70;;;;;;;7.96;100.00;99547.66;6072771;28;20270;-70
2023/11/10 03:55:54;;;;;;;2.30;2.20;;;;;;;7.98;100.00;99542.13;6066452;28;20221;-70
2023/11/10 03:59:16;;;;;;;2.20;2.00;;;;;;;7.99;100.00;99541.97;6069084;28;20233;-69
2023/11/10 04:02:36;;;;;;;7.00;2.00;;;;;;;7.99;100.00;99530.38;6064552;28;20521;-69
2023/11/10 04:05:57;;;;;;;2.50;2.30;;;;;;;7.97;100.00;99535.91;6074312;28;20595;-69
2023/11/10 04:09:21;;;;;;;2.40;2.30;;;;;;;7.94;100.00;99527.31;6070991;28;20253;-69
2023/11/10 04:12:42;;;;;;;3.67;2.73;;;;;;;7.95;100.00;99531.66;6071615;28;20241;-69
2023/11/10 04:16:03;;;;;;;2.57;2.37;;;;;;;7.86;100.00;99536.13;6079137;28;20488;-70
2023/11/10 04:19:24;;;;;;;2.50;2.30;;;;;;;7.83;100.00;99541.78;6073797;28;20437;-70
2023/11/10 04:22:45;;;;;;;3.60;3.30;;;;;;;7.82;100.00;99541.97;6077505;28;20486;-69
2023/11/10 04:26:07;;;;;;;2.73;1.93;;;;;;;7.85;100.00;99550.53;6072931;28;20240;-70
2023/11/10 04:29:31;;;;;;;2.90;2.70;;;;;;;7.78;100.00;99537.91;6073525;28;20255;-70
2023/11/10 04:32:54;;;;;;;2.70;2.50;;;;;;;7.75;100.00;99543.53;6070358;28;21632;-69
2023/11/10 04:36:15;;;;;;;4.27;3.87;;;;;;;7.79;100.00;99532.38;6074336;28;20240;-69
2023/11/10 04:39:38;;;;;;;4.40;2.57;;;;;;;7.76;100.00;99539.88;6073247;28;20236;-69
2023/11/10 04:43:00;;;;;;;2.57;2.30;;;;;;;7.75;100.00;99531.00;6079925;28;20615;-70
2023/11/10 04:46:21;;;;;;;2.60;2.40;;;;;;;7.71;100.00;99534.13;6066610;28;20292;-70
2023/11/10 04:49:42;;;;;;;2.60;2.40;;;;;;;7.76;100.00;99531.84;6057921;28;20526;-69
2023/11/10 04:53:03;;;;;;;4.07;3.00;;;;;;;7.77;100.00;99530.81;6079535;28;20807;-70
2023/11/10 04:56:24;;;;;;;4.57;2.77;;;;;;;7.76;100.00;99529.97;6087894;28;20232;-69
2023/11/10 04:59:47;;;;;;;2.83;2.63;;;;;;;7.68;100.00;99537.94;6079385;28;20236;-69
2023/11/10 05:03:10;;;;;;;2.47;2.27;;;;;;;7.72;100.00;99533.97;6074643;28;20627;-70
2023/11/10 05:06:31;;;;;;;4.47;1.93;;;;;;;7.82;100.00;99544.66;6076850;28;21596;-69
2023/11/10 05:09:51;;;;;;;3.00;2.57;;;;;;;7.70;100.00;99541.31;6071819;28;20237;-70
2023/11/10 05:13:15;;;;;;;2.10;1.90;;;;;;;7.68;100.00;99540.63;6077331;28;20241;-71
2023/11/10 05:16:37;;;;;;;2.80;2.60;;;;;;;7.72;100.00;99541.16;6064092;28;20229;-69
2023/11/10 05:19:57;;;;;;;4.63;2.50;;;;;;;7.69;100.00;99542.31;6075843;28;20623;-70
2023/11/10 05:23:18;;;;;;;4.47;4.00;;;;;;;7.66;100.00;99553.34;6076474;28;20264;-69
2023/11/10 05:26:41;;;;;;;2.50;2.33;;;;;;;7.67;100.00;99540.78;6070586;28;20244;-70
2023/11/10 05:30:03;;;;;;;2.57;2.47;;;;;;;7.72;100.00;99544.69;6069830;28;20241;-68
2023/11/10 05:33:25;;;;;;;3.53;2.73;;;;;;;7.74;100.00;99544.56;6075102;28;20245;-70
2023/11/10 05:36:46;;;;;;;6.07;2.60;;;;;;;7.75;100.00;99551.59;6075858;28;20236;-69
2023/11/10 05:40:09;;;;;;;2.27;2.13;;;;;;;7.72;100.00;99566.16;6071834;28;20611;-68
2023/11/10 05:43:30;;;;;;;2.63;2.00;;;;;;;7.74;100.00;99548.06;6081232;28;20233;-69
2023/11/10 05:46:51;;;;;;;2.37;2.23;;;;;;;7.80;100.00;99568.09;6074821;28;23342;-70
2023/11/10 05:50:14;;;;;;;2.40;2.20;;;;;;;7.78;100.00;99549.44;6079839;28;20401;-70
2023/11/10 05:53:35;;;;;;;2.50;2.30;;;;;;;7.75;100.00;99565.84;6080050;28;20233;-69
2023/11/10 05:56:56;;;;;;;2.63;2.33;;;;;;;7.80;100.00;99566.22;6076629;28;20233;-70
2023/11/10 06:00:17;;;;;;;2.83;2.63;;;;;;;7.80;100.00;99565.41;6063544;28;20241;-71
2023/11/10 06:03:39;;;;;;;8.10;3.70;;;;;;;7.79;100.00;99572.59;6072690;28;20323;-70
2023/11/10 06:07:01;;;;;;;2.40;1.73;;;;;;;7.79;100.00;99563.72;6076303;28;20229;-69
2023/11/10 06:10:22;;;;;;;2.50;2.30;;;;;;;7.74;100.00;99576.75;6074387;28;22910;-70
2023/11/10 06:13:43;;;;;;;6.13;2.67;;;;;;;7.74;100.00;99566.84;6076757;28;20228;-69
2023/11/10 06:17:04;;;;;;;2.23;2.07;;;;;;;7.78;100.00;99562.03;6080219;28;20232;-70
2023/11/10 06:20:31;;;;;;;1.90;1.60;;;;;;;7.82;100.00;99569.59;6069937;28;20233;-70
2023/11/10 06:23:53;;;;;;;2.30;2.10;;;;;;;7.82;100.00;99571.47;6078979;28;20287;-70
2023/11/10 06:27:14;;;;;;;8.40;2.07;;;;;;;7.87;100.00;99575.38;6064627;28;20249;-70
2023/11/10 06:30:35;;;;;;;2.00;1.60;;;;;;;7.90;100.00;99566.19;6073798;28;20233;-69
2023/11/10 06:33:56;;;;;;;6.20;2.17;;;;;;;7.84;100.00;99566.78;6074818;28;20240;-69
2023/11/10 06:37:17;;;;;;;5.57;2.50;;;;;;;7.93;100.00;99576.59;6066259;28;20236;-70
2023/11/10 06:40:39;;;;;;;2.07;1.90;;;;;;;7.83;100.00;99565.94;6075235;28;20241;-70
2023/11/10 06:44:00;;;;;;;3.20;2.77;;;;;;;7.84;100.00;99570.28;6072212;28;20241;-70
2023/11/10 06:47:21;;;;;;;6.27;3.17;;;;;;;7.87;100.00;99577.22;6073631;28;20233;-70
2023/11/10 06:50:42;;;;;;;5.77;2.80;;;;;;;7.86;100.00;99578.22;6071870;28;20229;-70
2023/11/10 06:54:03;;;;;;;6.53;2.10;;;;;;;7.80;100.00;99578.81;6071873;28;20236;-70
2023/11/10 06:57:27;;;;;;;2.97;2.67;;;;;;;7.81;100.00;99584.03;6068939;28;20517;-70
2023/11/10 07:00:48;;;;;;;6.67;2.93;;;;;;;7.77;100.00;99582.66;6076153;28;20233;-69
2023/11/10 07:04:09;;;;;;;4.73;2.33;;;;;;;7.78;100.00;99591.53;6074034;28;20233;-71
2023/11/10 07:07:31;;;;;;;3.17;2.40;;;;;;;7.83;100.00;99582.03;6074070;28;20244;-71
2023/11/10 07:10:57;;;;;;;2.90;2.67;;;;;;;7.81;100.00;99570.63;6076437;28;20236;-70
2023/11/10 07:14:19;;;;;;;3.47;2.67;;;;;;;7.88;100.00;99576.22;6075720;28;20245;-70
2023/11/10 07:17:41;;;;;;;2.67;1.87;;;;;;;7.85;100.00;99576.50;6070980;28;20237;-69
2023/11/10 07:21:02;;;;;;;4.03;2.00;;;;;;;7.70;100.00;99567.28;6076825;28;20245;-69
2023/11/10 07:24:22;;;;;;;3.83;2.50;;;;;;;7.63;100.00;99580.47;6073782;28;20620;-69
2023/11/10 07:27:43;;;;;;;2.40;2.20;;;;;;;7.69;100.00;99587.06;6081504;28;20264;-70
2023/11/10 07:31:06;;;;;;;2.70;2.00;;;;;;;7.75;100.00;99591.81;6072707;28;20264;-69
2023/11/10 07:34:26;;;;;;;2.00;1.73;;;;;;;7.76;100.00;99588.97;6075437;28;20259;-70
2023/11/10 07:37:48;;;;;;;1.43;1.30;;;;;;;7.64;100.00;99597.38;6079909;28;20225;-70
2023/11/10 07:41:09;;;;;;;3.90;1.90;;;;;;;7.81;100.00;99597.44;6077683;28;20233;-69
2023/11/10 07:44:30;;;;;;;1.87;1.77;;;;;;;7.88;100.00;99601.22;6073596;28;20316;-71
2023/11/10 07:47:52;;;;;;;5.30;1.93;;;;;;;7.91;100.00;99597.38;6079252;28;20228;-70
2023/11/10 07:51:13;;;;;;;1.53;1.43;;;;;;;7.81;100.00;99610.00;6075340;28;20670;-69
2023/11/10 07:54:34;;;;;;;5.27;2.30;;;;;;;7.81;100.00;99597.44;6075654;28;20726;-70
2023/11/10 07:57:55;;;;;;;5.67;3.23;;;;;;;7.91;100.00;99606.28;6077989;28;20229;-69
2023/11/10 08:01:16;;;;;;;3.20;2.73;;;;;;;7.97;100.00;99594.09;6074531;28;20241;-70
2023/11/10 08:04:38;;;;;;;3.67;1.80;;;;;;;8.19;100.00;99598.19;6065771;29;20316;-70
2023/11/10 08:08:02;;;;;;;2.03;1.83;;;;;;;8.04;100.00;99590.66;6072169;28;20233;-68
2023/11/10 08:11:23;;;;;;;2.93;1.70;;;;;;;8.30;100.00;99592.63;6074295;28;20639;-72
2023/11/10 08:14:47;;;;;;;3.60;1.43;;;;;;;8.22;100.00;99596.03;6078731;28;20241;-69
2023/11/10 08:18:08;;;;;;;2.60;1.20;;;;;;;8.28;100.00;99595.44;6082600;28;20233;-70
2023/11/10 08:21:35;;;;;;;1.17;0.90;;;;;;;8.20;100.00;99600.69;6086258;28;20236;-70
2023/11/10 08:24:56;;;;;;;2.33;1.33;;;;;;;8.16;100.00;99610.06;6082218;28;20611;-69
2023/11/10 08:28:17;;;;;;;4.20;1.47;;;;;;;8.13;100.00;99601.47;6086008;28;20237;-70
2023/11/10 08:31:38;;;;;;;1.93;1.40;;;;;;;8.19;100.00;99606.22;6084039;28;20577;-70
2023/11/10 08:34:59;;;;;;;3.73;1.50;;;;;;;8.06;100.00;99599.41;6080630;28;21059;-69
2023/11/10 08:38:21;;;;;;;1.57;1.47;;;;;;;7.98;100.00;99612.72;6097853;28;20228;-69
2023/11/10 08:41:42;;;;;;;1.53;1.43;;;;;;;8.13;100.00;99607.69;6083344;28;20232;-70
2023/11/10 08:45:04;;;;;;;2.13;1.70;;;;;;;8.17;100.00;99610.91;6087700;28;20748;-69
2023/11/10 08:48:26;;;;;;;2.50;2.00;;;;;;;8.36;100.00;99611.66;6090290;28;20241;-69
2023/11/10 08:51:47;;;;;;;2.70;1.83;;;;;;;8.19;100.00;99620.50;6072515;28;20507;-70
2023/11/10 08:55:11;;;;;;;3.77;2.37;;;;;;;8.06;100.00;99614.66;6082469;28;20316;-69
2023/11/10 08:58:32;;;;;;;2.30;1.53;;;;;;;8.15;100.00;99623.63;6074814;29;20311;-69
2023/11/10 09:01:53;;;;;;;12.90;2.10;;;;;;;8.18;100.00;99617.97;6065409;28;20591;-70
2023/11/10 09:05:15;;;;;;;7.57;2.57;;;;;;;8.28;100.00;99616.09;6081748;28;20306;-69
2023/11/10 09:08:35;;;;;;;1.93;1.33;;;;;;;8.24;100.00;99614.69;6090461;28;20232;-69
2023/11/10 09:11:58;;;;;;;1.80;1.03;;;;;;;7.96;100.00;99625.47;6077531;28;20236;-71
2023/11/10 09:15:22;;;;;;;1.27;1.07;;;;;;;8.14;100.00;99628.16;6078968;28;20236;-69
2023/11/10 09:18:43;;;;;;;2.83;1.73;;;;;;;8.09;100.00;99620.56;6079377;29;20232;-70
2023/11/10 09:22:04;;;;;;;2.00;1.30;;;;;;;8.08;100.00;99626.94;6083552;28;20339;-69
2023/11/10 09:25:25;;;;;;;2.47;1.90;;;;;;;8.24;100.00;99618.19;6082011;28;20502;-70
2023/11/10 09:28:49;;;;;;;2.30;2.13;;;;;;;8.27;100.00;99625.13;6078696;28;20639;-69
2023/11/10 09:32:11;;;;;;;3.27;1.97;;;;;;;8.30;100.00;99614.97;6065240;28;20229;-69
2023/11/10 09:35:33;;;;;;;1.67;1.57;;;;;;;8.22;100.00;99635.47;6074318;29;20326;-69
2023/11/10 09:38:54;;;;;;;2.40;1.47;;;;;;;8.20;100.00;99629.41;6081433;28;20272;-69
2023/11/10 09:42:16;;;;;;;2.13;1.50;;;;;;;8.25;100.00;99632.47;6073179;28;20516;-70
2023/11/10 09:45:44;;;;;;;1.63;1.53;;;;;;;8.25;100.00;99632.47;6082005;28;20229;-68
2023/11/10 09:49:06;;;;;;;1.50;1.40;;;;;;;8.28;100.00;99648.31;6083010;28;20647;-69
2023/11/10 09:52:31;;;;;;;7.37;2.10;;;;;;;8.31;100.00;99637.25;6088877;28;20245;-70
2023/11/10 09:55:54;;;;;;;2.53;1.97;;;;;;;8.36;100.00;99648.41;6082156;28;20240;-69
2023/11/10 09:59:16;;;;;;;5.53;1.60;;;;;;;8.32;100.00;99638.97;6081430;28;20233;-69
2023/11/10 10:02:41;;;;;;;6.13;2.10;;;;;;;8.35;100.00;99641.31;6081551;28;20237;-70
2023/11/10 10:06:02;;;;;;;3.50;2.00;;;;;;;8.38;100.00;99647.25;6075812;28;20233;-70
2023/11/10 10:09:24;;;;;;;3.33;1.57;;;;;;;8.35;100.00;99649.38;6076482;28;20630;-69
2023/11/10 10:12:45;;;;;;;1.90;1.67;;;;;;;8.44;100.00;99643.09;6065379;28;20252;-69
2023/11/10 10:16:07;;;;;;;3.60;1.73;;;;;;;8.62;100.00;99638.56;6075301;28;20237;-69
2023/11/10 10:19:29;;;;;;;1.90;1.80;;;;;;;8.45;100.00;99652.88;6082404;28;20237;-70
2023/11/10 10:22:52;;;;;;;1.50;1.40;;;;;;;8.46;100.00;99646.47;6080988;28;20311;-69
2023/11/10 10:26:15;;;;;;;2.93;1.73;;;;;;;8.48;100.00;99653.38;6073730;28;20233;-72
2023/11/10 10:29:37;;;;;;;3.40;1.80;;;;;;;8.48;100.00;99650.72;6083293;28;20236;-70
2023/11/10 10:32:58;;;;;;;3.57;1.27;;;;;;;8.44;100.00;99653.84;6070595;28;20234;-70
2023/11/10 10:36:20;;;;;;;1.43;1.30;;;;;;;8.37;100.00;99647.38;6077187;28;20240;-70
2023/11/10 10:39:44;;;;;;;6.47;2.47;;;;;;;8.42;100.00;99659.38;6073233;28;20248;-69
2023/11/10 10:43:07;;;;;;;3.20;1.87;;;;;;;8.45;100.00;99650.19;6086115;28;20243;-70
2023/11/10 10:46:29;;;;;;;2.30;1.97;;;;;;;8.54;100.00;99646.56;6083125;28;20224;-69
2023/11/10 10:49:51;;;;;;;1.50;1.33;;;;;;;8.52;100.00;99641.34;6080077;28;20241;-69
2023/11/10 10:53:14;;;;;;;3.90;2.10;;;;;;;8.50;100.00;99654.09;6072926;28;20236;-69
2023/11/10 10:56:37;;;;;;;2.63;1.80;;;;;;;8.61;100.00;99643.13;6072921;28;20233;-68
2023/11/10 10:59:58;;;;;;;4.27;1.70;;;;;;;8.65;100.00;99649.00;6079607;28;20825;-70
2023/11/10 11:03:39;;;;;;;2.10;1.67;;;;;;;8.55;100.00;99648.25;6075738;28;20229;-69
2023/11/10 11:07:29;;;;;;;2.00;1.70;;;;;;;8.67;100.00;99649.72;6071290;29;20700;-70
2023/11/10 11:11:22;;;;;;;2.97;2.17;;;;;;;8.65;100.00;99649.88;6083100;28;20228;-70
2023/11/10 11:14:53;;;;;;;3.70;1.70;;;;;;;8.72;100.00;99647.38;6079852;28;20241;-72
2023/11/10 11:18:30;;;;;;;1.90;1.47;;;;;;;8.73;100.00;99643.72;6079481;28;20303;-70
2023/11/10 11:21:53;;;;;;;4.60;1.80;;;;;;;8.77;100.00;99642.41;6081450;28;20594;-70
2023/11/10 11:25:15;;;;;;;1.63;1.13;;;;;;;8.77;100.00;99643.25;6066606;28;20240;-70
2023/11/10 11:28:38;;;;;;;1.57;1.40;;;;;;;8.80;100.00;99644.78;6082363;28;20258;-68
2023/11/10 11:32:03;;;;;;;1.97;1.67;;;;;;;8.93;100.00;99644.38;6085565;28;20237;-70
2023/11/10 11:35:24;;;;;;;2.13;1.90;;;;;;;8.86;100.00;99647.66;6079518;28;20345;-69
2023/11/10 11:38:46;;;;;;;2.57;1.50;;;;;;;8.88;100.00;99636.78;6068802;28;20663;-70
2023/11/10 11:42:07;;;;;;;2.87;1.53;;;;;;;8.82;100.00;99634.72;6074359;28;20233;-70
2023/11/10 11:45:31;;;;;;;2.40;1.50;;;;;;;8.81;100.00;99639.25;6079953;28;20237;-69
2023/11/10 11:48:54;;;;;;;2.30;1.87;;;;;;;8.83;100.00;99641.78;6082252;28;20252;-69
2023/11/10 11:52:16;;;;;;;2.67;1.50;;;;;;;8.97;100.00;99643.06;6080884;28;20245;-69
2023/11/10 11:55:37;;;;;;;1.67;1.57;;;;;;;9.03;100.00;99647.81;6078713;28;20237;-71
2023/11/10 11:59:00;;;;;;;2.67;2.37;;;;;;;8.76;100.00;99651.47;6075910;28;20280;-70
2023/11/10 12:02:22;;;;;;;3.30;2.50;;;;;;;8.83;100.00;99641.78;6076418;28;20260;-70
2023/11/10 12:05:44;;;;;;;3.73;2.10;;;;;;;8.86;100.00;99654.91;6078774;28;20244;-69
2023/11/10 12:09:06;;;;;;;3.10;2.73;;;;;;;8.90;100.00;99640.16;6077729;28;20236;-70
2023/11/10 12:12:27;;;;;;;2.57;2.37;;;;;;;8.91;100.00;99646.38;6067735;28;20241;-70
2023/11/10 12:15:48;;;;;;;3.37;1.77;;;;;;;8.89;100.00;99648.41;6078713;28;20702;-69
2023/11/10 12:19:11;;;;;;;3.03;2.63;;;;;;;8.90;100.00;99640.16;6069842;28;20260;-70
2023/11/10 12:22:32;;;;;;;3.77;2.10;;;;;;;8.91;100.00;99635.66;6080895;28;20248;-71
2023/11/10 12:25:57;;;;;;;1.77;1.67;;;;;;;8.95;100.00;99639.69;6067522;28;20335;-68
2023/11/10 12:29:26;;;;;;;16.53;3.97;;;;;;;8.92;100.00;99648.91;6077299;28;20233;-69
2023/11/10 12:32:48;;;;;;;3.17;2.17;;;;;;;8.82;100.00;99640.94;6067483;28;23104;-69
2023/11/10 12:36:11;;;;;;;2.27;2.13;;;;;;;8.82;100.00;99637.41;6077465;28;20267;-70
2023/11/10 12:39:35;;;;;;;2.53;2.33;;;;;;;8.82;100.00;99643.59;6084691;28;20392;-70
2023/11/10 12:42:58;;;;;;;2.97;2.53;;;;;;;8.93;100.00;99639.84;6071057;28;20288;-71
2023/11/10 12:46:23;;;;;;;2.10;1.90;;;;;;;8.97;100.00;99632.31;6070815;28;20623;-70
2023/11/10 12:49:48;;;;;;;3.43;2.27;;;;;;;8.96;100.00;99627.94;6074848;28;20686;-70
2023/11/10 12:53:11;;;;;;;2.60;2.03;;;;;;;9.02;100.00;99641.59;6076668;28;20606;-70
2023/11/10 12:56:32;;;;;;;3.87;2.70;;;;;;;9.05;100.00;99640.44;6084953;28;20650;-70
2023/11/10 12:59:53;;;;;;;3.83;2.43;;;;;;;9.00;100.00;99640.91;6073814;28;20241;-70
2023/11/10 13:03:14;;;;;;;4.33;3.50;;;;;;;8.99;100.00;99639.22;6074728;28;20563;-70
2023/11/10 13:06:35;;;;;;;3.87;2.40;;;;;;;9.11;100.00;99637.13;6080165;28;20332;-72
2023/11/10 13:09:57;;;;;;;3.03;2.20;;;;;;;9.11;100.00;99643.34;6078617;28;20241;-71
2023/11/10 13:13:18;;;;;;;3.47;3.17;;;;;;;9.19;100.00;99643.41;6079232;28;20253;-72
2023/11/10 13:16:43;;;;;;;2.27;2.03;;;;;;;9.22;100.00;99645.75;6081621;28;20616;-72
2023/11/10 13:20:06;;;;;;;2.63;1.80;;;;;;;9.56;100.00;99641.28;6077286;28;20236;-73
2023/11/10 13:23:27;;;;;;;3.53;2.20;;;;;;;9.82;100.00;99638.56;6081877;28;20233;-72
2023/11/10 13:26:49;;;;;;;2.20;1.90;;;;;;;9.64;100.00;99651.22;6087154;28;20263;-72
2023/11/10 13:30:13;;;;;;;3.27;2.57;;;;;;;9.40;100.00;99651.94;6077422;28;20241;-72
2023/11/10 13:33:34;;;;;;;6.43;1.93;;;;;;;9.38;100.00;99643.19;6082838;28;20252;-71
2023/11/10 13:36:56;;;;;;;2.40;2.30;;;;;;;9.33;100.00;99650.03;6081997;28;20236;-72
2023/11/10 13:40:18;;;;;;;3.13;1.90;;;;;;;9.25;100.00;99641.91;6085340;28;20249;-73
2023/11/10 13:43:42;;;;;;;1.93;1.83;;;;;;;9.20;100.00;99649.63;6082190;28;20237;-71
2023/11/10 13:47:03;;;;;;;2.10;1.70;;;;;;;9.24;100.00;99649.13;6078696;28;20245;-71
2023/11/10 13:50:24;;;;;;;4.47;1.67;;;;;;;9.21;100.00;99641.41;6081135;28;20240;-72
2023/11/10 13:53:45;;;;;;;2.17;2.03;;;;;;;9.24;100.00;99643.75;6074000;28;20236;-71
2023/11/10 13:57:06;;;;;;;2.73;2.30;;;;;;;9.24;100.00;99654.50;6077407;28;20236;-72
2023/11/10 14:00:29;;;;;;;1.60;1.50;;;;;;;9.29;100.00;99652.22;6081678;28;20251;-72
2023/11/10 14:03:50;;;;;;;3.97;2.00;;;;;;;9.27;100.00;99650.66;6085020;28;20256;-72
2023/11/10 14:07:13;;;;;;;2.07;1.80;;;;;;;9.33;100.00;99644.66;6085397;28;20264;-73
2023/11/10 14:10:34;;;;;;;1.90;1.80;;;;;;;9.30;100.00;99653.91;6072870;28;20313;-71
2023/11/10 14:13:55;;;;;;;2.13;1.93;;;;;;;9.45;100.00;99656.88;6078449;28;20247;-72
2023/11/10 14:17:17;;;;;;;3.20;2.40;;;;;;;9.44;100.00;99657.84;6084940;28;20224;-72
2023/11/10 14:20:38;;;;;;;3.03;1.97;;;;;;;9.45;100.00;99651.47;6076150;28;20332;-73
2023/11/10 14:24:00;;;;;;;3.10;2.23;;;;;;;9.38;100.00;99653.97;6081507;28;20565;-71
2023/11/10 14:27:22;;;;;;;2.73;2.53;;;;;;;9.36;100.00;99664.03;6080500;28;20237;-69
2023/11/10 14:30:42;;;;;;;3.10;2.30;;;;;;;9.32;100.00;99662.66;6076688;28;20237;-69
2023/11/10 14:34:05;;;;;;;2.10;1.90;;;;;;;9.34;100.00;99660.66;6077384;28;20679;-69
2023/11/10 14:37:27;;;;;;;3.37;2.10;;;;;;;9.33;100.00;99661.66;6082156;28;20517;-69
2023/11/10 14:40:48;;;;;;;2.93;2.63;;;;;;;9.30;100.00;99663.81;6071704;28;20259;-69
2023/11/10 14:44:12;;;;;;;4.30;2.03;;;;;;;9.29;100.00;99662.13;6077068;28;20244;-68
2023/11/10 14:47:34;;;;;;;9.20;2.03;;;;;;;9.32;100.00;99668.03;6083383;28;20593;-69
2023/11/10 14:50:57;;;;;;;2.23;1.87;;;;;;;9.34;100.00;99666.03;6079629;28;20284;-68
2023/11/10 14:54:19;;;;;;;2.73;2.50;;;;;;;9.32;100.00;99664.50;6084229;28;20240;-69
2023/11/10 14:57:40;;;;;;;2.20;1.80;;;;;;;9.32;100.00;99676.13;6076486;28;20237;-69
2023/11/10 15:01:03;;;;;;;1.80;1.70;;;;;;;9.35;100.00;99670.41;6074464;28;20236;-69
2023/11/10 15:04:25;;;;;;;1.57;1.47;;;;;;;9.33;100.00;99677.78;6077186;28;20233;-68
2023/11/10 15:07:49;;;;;;;2.80;2.30;;;;;;;9.32;100.00;99676.13;6086089;28;20228;-70
2023/11/10 15:11:09;;;;;;;4.43;2.00;;;;;;;9.32;100.00;99678.81;6084562;28;20236;-69
2023/11/10 15:14:30;;;;;;;2.53;1.90;;;;;;;9.30;100.00;99686.19;6080216;28;20316;-70
2023/11/10 15:17:51;;;;;;;3.63;1.80;;;;;;;9.29;100.00;99676.41;6080373;28;20232;-69
2023/11/10 15:21:12;;;;;;;2.77;1.70;;;;;;;9.30;100.00;99670.03;6082072;28;20291;-70
2023/11/10 15:24:36;;;;;;;3.67;3.30;;;;;;;9.33;100.00;99672.41;6080655;28;20237;-70
2023/11/10 15:27:56;;;;;;;2.00;1.90;;;;;;;9.36;100.00;99666.72;6077306;28;20248;-71
2023/11/10 15:31:18;;;;;;;2.47;1.93;;;;;;;9.33;100.00;99664.34;6077210;28;20229;-70
2023/11/10 15:34:50;;;;;;;3.00;2.33;;;;;;;9.29;100.00;99652.22;6082257;28;20510;-69
2023/11/10 15:38:11;;;;;;;2.97;2.67;;;;;;;9.27;100.00;99661.44;6075416;28;20241;-69
2023/11/10 15:41:33;;;;;;;3.37;2.60;;;;;;;9.24;100.00;99659.91;6073469;28;20266;-69
2023/11/10 15:44:53;;;;;;;3.77;2.10;;;;;;;9.24;100.00;99670.66;6082263;28;20252;-70
2023/11/10 15:48:15;;;;;;;3.77;2.67;;;;;;;9.21;100.00;99665.59;6071165;28;20323;-69
2023/11/10 15:51:36;;;;;;;5.87;3.23;;;;;;;9.21;100.00;99676.34;6068363;28;20240;-69